createdAt,value
2022-12-08T00:02:44.886Z,9.13
2022-12-08T00:08:05.275Z,10.27
2022-12-08T00:13:11.469Z,9.60
2022-12-08T00:18:16.708Z,9.43
2022-12-08T00:23:24.689Z,8.97
2022-12-08T00:28:30.115Z,9.00
2022-12-08T00:33:35.377Z,9.68
2022-12-08T00:38:44.939Z,10.33
2022-12-08T00:43:50.195Z,9.00
2022-12-08T00:48:55.442Z,8.80
2022-12-08T00:54:03.409Z,9.52
2022-12-08T00:59:10.026Z,7.53
2022-12-08T01:04:17.955Z,8.33
2022-12-08T01:09:25.792Z,7.88
2022-12-08T01:14:31.259Z,7.03
2022-12-08T01:19:36.589Z,7.03
2022-12-08T01:24:44.424Z,7.68
2022-12-08T01:29:49.673Z,8.50
2022-12-08T01:34:54.929Z,8.07
2022-12-08T01:40:03.279Z,8.17
2022-12-08T01:45:10.296Z,7.85
2022-12-08T01:50:16.900Z,8.82
2022-12-08T01:55:28.988Z,8.83
2022-12-08T02:00:34.296Z,9.65
2022-12-08T02:05:42.003Z,9.03
2022-12-08T02:10:50.275Z,9.48
2022-12-08T02:16:05.712Z,8.63
2022-12-08T02:21:16.548Z,8.13
2022-12-08T02:27:00.393Z,9.13
2022-12-08T02:32:26.196Z,9.53
2022-12-08T02:37:39.240Z,9.75
2022-12-08T02:42:50.113Z,8.70
2022-12-08T02:47:55.519Z,7.53
2022-12-08T02:58:35.497Z,8.20
2022-12-08T03:03:48.589Z,7.65
2022-12-08T03:09:00.047Z,8.25
2022-12-08T03:14:08.826Z,8.77
2022-12-08T03:19:20.747Z,7.28
2022-12-08T03:24:28.908Z,8.43
2022-12-08T03:29:35.307Z,7.30
2022-12-08T03:34:44.439Z,7.43
2022-12-08T03:39:52.459Z,6.80
2022-12-08T03:44:57.747Z,7.47
2022-12-08T03:50:03.336Z,6.87
2022-12-08T03:55:12.207Z,5.55
2022-12-08T04:00:19.713Z,5.35
2022-12-08T04:05:24.990Z,6.03
2022-12-08T04:10:32.889Z,4.85
2022-12-08T04:15:38.195Z,4.93
2022-12-08T04:20:44.133Z,5.40
2022-12-08T04:25:52.031Z,5.47
2022-12-08T04:30:57.327Z,5.50
2022-12-08T04:36:02.994Z,5.28
2022-12-08T04:41:10.945Z,6.20
2022-12-08T04:46:16.246Z,5.28
2022-12-08T04:51:23.239Z,5.47
2022-12-08T04:56:31.074Z,6.33
2022-12-08T05:01:36.433Z,5.78
2022-12-08T05:06:41.857Z,5.53
2022-12-08T05:11:49.753Z,5.32
2022-12-08T05:16:55.763Z,5.18
2022-12-08T05:22:01.523Z,6.07
2022-12-08T05:27:10.692Z,6.60
2022-12-08T05:32:16.018Z,6.87
2022-12-08T05:37:21.261Z,6.65
2022-12-08T05:42:29.092Z,6.43
2022-12-08T05:47:36.156Z,7.37
2022-12-08T05:52:41.741Z,7.97
2022-12-08T05:57:49.659Z,8.50
2022-12-08T06:02:55.053Z,7.82
2022-12-08T06:08:00.388Z,8.70
2022-12-08T06:13:08.627Z,9.20
2022-12-08T06:18:14.446Z,9.25
2022-12-08T06:23:19.710Z,9.03
2022-12-08T06:28:27.581Z,9.73
2022-12-08T06:33:32.850Z,9.32
2022-12-08T06:38:42.965Z,9.97
2022-12-08T06:43:51.326Z,8.30
2022-12-08T06:48:56.766Z,8.63
2022-12-08T06:54:01.985Z,8.07
2022-12-08T06:59:10.429Z,9.35
2022-12-08T07:04:15.664Z,8.10
2022-12-08T07:09:20.972Z,8.73
2022-12-08T07:14:28.962Z,9.17
2022-12-08T07:19:34.305Z,8.98
2022-12-08T07:24:39.691Z,8.95
2022-12-08T07:29:47.513Z,8.60
2022-12-08T07:34:52.769Z,8.63
2022-12-08T07:39:58.064Z,8.77
2022-12-08T07:45:06.017Z,9.00
2022-12-08T07:50:12.237Z,9.20
2022-12-08T07:55:17.608Z,8.10
2022-12-08T08:00:25.943Z,7.03
2022-12-08T08:05:31.227Z,7.17
2022-12-08T08:10:36.526Z,7.40
2022-12-08T08:15:44.585Z,7.57
2022-12-08T08:20:49.939Z,7.53
2022-12-08T08:25:55.426Z,7.75
2022-12-08T08:31:03.454Z,7.23
2022-12-08T08:36:10.641Z,7.00
2022-12-08T08:41:16.708Z,6.45
2022-12-08T08:46:24.704Z,8.47
2022-12-08T08:51:30.050Z,8.20
2022-12-08T08:56:36.241Z,9.27
2022-12-08T09:01:44.522Z,8.32
2022-12-08T09:06:50.557Z,9.63
2022-12-08T09:11:56.058Z,10.27
2022-12-08T09:17:04.495Z,9.73
2022-12-08T09:22:09.925Z,8.93
2022-12-08T09:27:15.951Z,9.65
2022-12-08T09:32:23.884Z,9.10
2022-12-08T09:37:31.299Z,9.37
2022-12-08T09:42:44.419Z,9.60
2022-12-08T09:48:03.783Z,9.87
2022-12-08T09:53:15.209Z,9.45
2022-12-08T09:58:35.108Z,7.82
2022-12-08T10:03:44.293Z,8.13
2022-12-08T10:08:54.940Z,7.68
2022-12-08T10:14:10.538Z,8.40
2022-12-08T10:19:22.842Z,7.72
2022-12-08T10:24:33.075Z,7.13
2022-12-08T10:29:39.368Z,7.70
2022-12-08T10:35:11.014Z,7.90
2022-12-08T10:40:19.758Z,6.40
2022-12-08T10:45:29.417Z,6.82
2022-12-08T10:50:44.064Z,6.93
2022-12-08T10:55:51.539Z,7.00
2022-12-08T11:01:00.409Z,6.93
2022-12-08T11:06:17.663Z,8.00
2022-12-08T11:11:29.358Z,6.65
2022-12-08T11:16:35.234Z,7.40
2022-12-08T11:21:44.572Z,6.90
2022-12-08T11:26:54.626Z,7.65
2022-12-08T11:32:03.558Z,8.10
2022-12-08T11:37:20.406Z,7.28
2022-12-08T11:42:29.449Z,8.43
2022-12-08T11:47:43.264Z,6.73
2022-12-08T11:52:54.302Z,8.05
2022-12-08T11:58:02.643Z,7.03
2022-12-08T12:03:16.295Z,6.75
2022-12-08T12:08:38.205Z,7.45
2022-12-08T12:13:59.271Z,6.67
2022-12-08T12:19:08.178Z,6.88
2022-12-08T12:24:26.109Z,6.87
2022-12-08T12:29:37.292Z,6.38
2022-12-08T12:34:52.295Z,5.78
2022-12-08T12:40:05.422Z,5.47
2022-12-08T12:45:26.541Z,6.88
2022-12-08T12:50:45.509Z,6.57
2022-12-08T12:55:58.271Z,5.65
2022-12-08T13:01:33.784Z,5.55
2022-12-08T13:06:43.571Z,5.60
2022-12-08T13:11:54.941Z,5.13
2022-12-08T13:17:05.030Z,5.40
2022-12-08T13:22:40.729Z,6.35
2022-12-08T13:27:56.036Z,5.70
2022-12-08T13:33:21.531Z,5.07
2022-12-08T13:38:30.928Z,5.32
2022-12-08T13:44:02.140Z,5.70
2022-12-08T14:00:10.808Z,5.00
2022-12-08T14:05:30.080Z,4.78
2022-12-08T14:10:47.043Z,5.03
2022-12-08T14:15:55.145Z,5.32
2022-12-08T14:21:22.226Z,4.70
2022-12-08T14:26:28.232Z,4.83
2022-12-08T14:31:37.021Z,5.53
2022-12-08T14:36:42.528Z,4.67
2022-12-08T14:42:02.253Z,5.20
2022-12-08T14:47:12.521Z,5.72
2022-12-08T14:52:18.144Z,5.47
2022-12-08T14:57:25.115Z,5.60
2022-12-08T15:02:34.899Z,5.00
2022-12-08T15:07:49.484Z,5.57
2022-12-08T15:13:03.581Z,5.30
2022-12-08T15:18:18.922Z,5.50
2022-12-08T15:23:28.617Z,5.50
2022-12-08T15:28:33.916Z,5.60
2022-12-08T15:33:42.733Z,6.13
2022-12-08T15:38:48.114Z,5.00
2022-12-08T15:43:53.827Z,5.83
2022-12-08T15:49:01.997Z,6.15
2022-12-08T15:54:07.730Z,5.97
2022-12-08T15:59:17.697Z,5.68
2022-12-08T16:05:17.852Z,5.70
2022-12-08T16:09:51.558Z,5.80
2022-12-08T16:20:43.997Z,5.57
2022-12-08T16:26:17.268Z,6.00
2022-12-08T16:31:21.442Z,5.15
2022-12-08T16:36:30.784Z,4.57
2022-12-08T16:41:48.563Z,5.82
2022-12-08T16:46:53.834Z,5.47
2022-12-08T16:52:02.032Z,5.40
2022-12-08T16:57:07.531Z,5.70
2022-12-08T17:02:16.377Z,5.83
2022-12-08T17:07:24.656Z,5.88
2022-12-08T17:12:30.868Z,5.50
2022-12-08T17:17:37.635Z,6.07
2022-12-08T17:22:46.128Z,4.68
2022-12-08T17:27:52.406Z,4.17
2022-12-08T17:32:57.849Z,5.60
2022-12-08T17:38:05.773Z,5.10
2022-12-08T17:43:11.020Z,4.70
2022-12-08T17:48:17.826Z,6.45
2022-12-08T17:53:26.060Z,5.47
2022-12-08T17:58:31.642Z,5.13
2022-12-08T18:03:37.769Z,5.93
2022-12-08T18:08:45.840Z,5.65
2022-12-08T18:13:52.291Z,5.78
2022-12-08T18:18:57.584Z,5.17
2022-12-08T18:24:05.943Z,5.88
2022-12-08T18:29:11.301Z,5.37
2022-12-08T18:34:18.973Z,5.95
2022-12-08T18:39:32.000Z,5.85
2022-12-08T18:44:38.368Z,4.97
2022-12-08T18:49:44.331Z,5.25
2022-12-08T18:55:07.032Z,5.30
2022-12-08T19:00:16.597Z,4.88
2022-12-08T19:05:22.145Z,5.70
2022-12-08T19:10:31.869Z,5.10
2022-12-08T19:15:37.646Z,4.82
2022-12-08T19:20:43.924Z,6.87
2022-12-08T19:25:51.914Z,5.85
2022-12-08T19:31:00.191Z,5.80
2022-12-08T19:36:08.630Z,5.73
2022-12-08T19:41:29.174Z,5.78
2022-12-08T19:46:40.192Z,6.27
2022-12-08T19:51:46.180Z,6.25
2022-12-08T19:56:54.397Z,6.07
2022-12-08T20:02:00.927Z,6.50
2022-12-08T20:07:07.007Z,7.43
2022-12-08T20:12:15.357Z,6.57
2022-12-08T20:17:20.717Z,6.90
2022-12-08T20:22:26.080Z,6.35
2022-12-08T20:27:33.973Z,6.40
2022-12-08T20:32:40.467Z,6.68
2022-12-08T20:37:46.132Z,6.60
2022-12-08T20:42:54.172Z,7.03
2022-12-08T20:47:59.952Z,6.22
2022-12-08T20:53:07.644Z,7.53
2022-12-08T20:58:15.650Z,6.22
2022-12-08T21:03:24.614Z,6.13
2022-12-08T21:08:30.356Z,6.78
2022-12-08T21:13:39.859Z,6.82
2022-12-08T21:18:45.808Z,6.97
2022-12-08T21:23:51.106Z,6.97
2022-12-08T21:29:00.677Z,6.47
2022-12-08T21:34:08.030Z,6.85
2022-12-08T21:39:13.730Z,7.35
2022-12-08T21:44:21.603Z,7.73
2022-12-08T21:49:28.145Z,7.90
2022-12-08T21:54:33.757Z,8.20
2022-12-08T21:59:41.929Z,7.07
2022-12-08T22:04:47.969Z,9.30
2022-12-08T22:09:53.425Z,8.67
2022-12-08T22:15:03.258Z,8.85
2022-12-08T22:20:11.233Z,8.57
2022-12-08T22:25:16.921Z,9.18
2022-12-08T22:30:25.234Z,8.80
2022-12-08T22:35:30.436Z,9.63
2022-12-08T22:40:35.641Z,8.57
2022-12-08T22:45:44.205Z,8.17
2022-12-08T22:50:49.674Z,9.25
2022-12-08T22:55:55.060Z,8.10
2022-12-08T23:01:03.030Z,8.57
2022-12-08T23:06:15.406Z,7.80
2022-12-08T23:11:22.670Z,7.97
2022-12-08T23:16:31.626Z,7.97
2022-12-08T23:21:37.329Z,8.40
2022-12-08T23:26:43.335Z,8.90
2022-12-08T23:31:51.601Z,8.25
2022-12-08T23:36:57.144Z,8.93
2022-12-08T23:42:02.527Z,9.30
2022-12-08T23:47:10.525Z,8.38
2022-12-08T23:52:17.342Z,8.60
2022-12-08T23:57:22.691Z,8.40
